createdAt,value
2019-03-27T00:01:16.851Z,7.78
2019-03-27T00:03:45.587Z,8.78
2019-03-27T00:06:14.238Z,8.68
2019-03-27T00:08:42.727Z,8.38
2019-03-27T00:11:11.259Z,8.18
2019-03-27T00:13:39.843Z,8.43
2019-03-27T00:16:08.384Z,8.35
2019-03-27T00:18:36.815Z,8.78
2019-03-27T00:21:05.301Z,8.00
2019-03-27T00:23:33.821Z,10.95
2019-03-27T00:26:02.368Z,10.03
2019-03-27T00:28:30.794Z,10.08
2019-03-27T00:30:59.267Z,10.18
2019-03-27T00:33:27.855Z,9.58
2019-03-27T00:35:56.390Z,9.38
2019-03-27T00:38:24.905Z,10.08
2019-03-27T00:40:53.443Z,9.55
2019-03-27T00:43:21.894Z,9.50
2019-03-27T00:45:50.452Z,11.28
2019-03-27T00:48:18.897Z,10.78
2019-03-27T00:50:47.443Z,10.03
2019-03-27T00:53:15.999Z,9.78
2019-03-27T00:55:44.532Z,9.40
2019-03-27T00:58:13.072Z,9.55
2019-03-27T01:00:47.331Z,10.10
2019-03-27T01:03:15.786Z,10.10
2019-03-27T01:05:44.532Z,10.88
2019-03-27T01:08:13.020Z,11.83
2019-03-27T01:10:41.475Z,12.35
2019-03-27T01:13:09.966Z,12.13
2019-03-27T01:15:40.081Z,11.35
2019-03-27T01:18:08.687Z,10.28
2019-03-27T01:20:37.211Z,13.22
2019-03-27T01:23:05.709Z,9.65
2019-03-27T01:25:34.330Z,9.05
2019-03-27T01:28:02.861Z,9.88
2019-03-27T01:30:31.316Z,9.05
2019-03-27T01:32:59.794Z,8.80
2019-03-27T01:35:28.342Z,8.38
2019-03-27T01:37:56.896Z,8.85
2019-03-27T01:40:25.353Z,9.33
2019-03-27T01:42:54.161Z,10.55
2019-03-27T01:45:22.696Z,8.60
2019-03-27T01:47:51.185Z,8.08
2019-03-27T01:50:19.807Z,8.18
2019-03-27T01:52:48.349Z,9.00
2019-03-27T01:55:16.856Z,9.53
2019-03-27T01:57:45.394Z,8.78
2019-03-27T02:00:14.038Z,9.43
2019-03-27T02:02:42.531Z,8.78
2019-03-27T02:05:11.415Z,8.85
2019-03-27T02:07:39.849Z,9.28
2019-03-27T02:10:09.449Z,9.88
2019-03-27T02:12:38.117Z,9.00
2019-03-27T02:15:08.695Z,9.20
2019-03-27T02:17:37.184Z,9.40
2019-03-27T02:20:08.089Z,8.93
2019-03-27T02:22:36.546Z,9.13
2019-03-27T02:25:07.078Z,9.55
2019-03-27T02:27:35.522Z,8.80
2019-03-27T02:30:06.391Z,8.90
2019-03-27T02:32:34.831Z,9.65
2019-03-27T02:35:03.445Z,8.78
2019-03-27T02:37:32.159Z,9.33
2019-03-27T02:40:00.625Z,9.58
2019-03-27T02:42:29.063Z,9.20
2019-03-27T02:44:57.658Z,8.75
2019-03-27T02:47:26.332Z,8.85
2019-03-27T02:49:54.792Z,9.48
2019-03-27T02:52:23.255Z,8.60
2019-03-27T02:54:51.891Z,8.60
2019-03-27T02:57:20.342Z,9.23
2019-03-27T02:59:48.990Z,8.98
2019-03-27T03:02:17.466Z,8.73
2019-03-27T03:04:46.034Z,8.70
2019-03-27T03:07:14.518Z,10.05
2019-03-27T03:09:42.961Z,10.18
2019-03-27T03:12:11.428Z,9.13
2019-03-27T03:14:39.964Z,9.85
2019-03-27T03:17:08.408Z,9.43
2019-03-27T03:19:36.957Z,9.63
2019-03-27T03:22:05.565Z,9.58
2019-03-27T03:24:34.012Z,9.23
2019-03-27T03:27:02.495Z,9.10
2019-03-27T03:29:31.009Z,8.85
2019-03-27T03:31:59.627Z,9.90
2019-03-27T03:34:28.245Z,9.23
2019-03-27T03:36:56.956Z,9.48
2019-03-27T03:39:25.441Z,9.13
2019-03-27T03:41:53.972Z,8.83
2019-03-27T03:44:22.516Z,9.23
2019-03-27T03:46:59.768Z,9.70
2019-03-27T03:49:21.304Z,9.48
2019-03-27T03:51:50.182Z,9.73
2019-03-27T03:54:19.475Z,10.30
2019-03-27T03:56:50.608Z,9.13
2019-03-27T03:59:20.552Z,10.13
2019-03-27T04:01:52.198Z,10.40
2019-03-27T04:04:22.284Z,9.43
2019-03-27T04:06:50.764Z,10.40
2019-03-27T04:09:24.619Z,9.98
2019-03-27T04:11:53.082Z,11.95
2019-03-27T04:14:21.540Z,12.63
2019-03-27T04:16:50.034Z,12.90
2019-03-27T04:19:18.546Z,11.05
2019-03-27T04:21:47.184Z,11.78
2019-03-27T04:24:16.075Z,13.03
2019-03-27T04:26:44.509Z,11.18
2019-03-27T04:29:12.976Z,12.63
2019-03-27T04:31:41.515Z,11.28
2019-03-27T04:34:09.990Z,12.45
2019-03-27T04:36:38.431Z,12.10
2019-03-27T04:39:07.053Z,11.53
2019-03-27T04:41:35.571Z,12.15
2019-03-27T04:44:04.190Z,11.90
2019-03-27T04:46:32.768Z,18.45
2019-03-27T04:49:01.237Z,18.62
2019-03-27T04:51:29.670Z,14.18
2019-03-27T04:53:58.137Z,12.30
2019-03-27T04:56:26.586Z,12.60
2019-03-27T04:58:55.050Z,14.80
2019-03-27T05:01:23.564Z,14.25
2019-03-27T05:03:52.765Z,12.15
2019-03-27T05:06:21.289Z,12.05
2019-03-27T05:08:49.780Z,14.43
2019-03-27T05:11:18.529Z,12.05
2019-03-27T05:13:47.055Z,11.48
2019-03-27T05:16:15.522Z,13.18
2019-03-27T05:18:44.085Z,14.35
2019-03-27T05:21:12.551Z,17.32
2019-03-27T05:23:41.103Z,21.90
2019-03-27T05:26:09.666Z,14.95
2019-03-27T05:28:38.247Z,13.68
2019-03-27T05:31:06.788Z,11.10
2019-03-27T05:33:35.227Z,12.15
2019-03-27T05:36:03.846Z,12.70
2019-03-27T05:38:32.393Z,12.13
2019-03-27T05:41:00.858Z,11.50
2019-03-27T05:43:29.328Z,11.48
2019-03-27T05:45:57.803Z,12.33
2019-03-27T05:48:26.332Z,11.68
2019-03-27T05:50:54.799Z,12.58
2019-03-27T05:53:23.248Z,14.90
2019-03-27T05:55:51.716Z,22.77
2019-03-27T05:58:20.316Z,13.18
2019-03-27T06:00:48.786Z,12.95
2019-03-27T06:03:17.241Z,12.58
2019-03-27T06:05:45.708Z,12.70
2019-03-27T06:08:14.242Z,12.28
2019-03-27T06:10:42.726Z,13.25
2019-03-27T06:13:11.181Z,13.25
2019-03-27T06:15:39.625Z,13.53
2019-03-27T06:18:13.359Z,12.93
2019-03-27T06:20:38.361Z,11.90
2019-03-27T06:23:06.839Z,13.25
2019-03-27T06:25:35.320Z,14.23
2019-03-27T06:28:03.897Z,10.65
2019-03-27T06:30:32.412Z,11.15
2019-03-27T06:33:00.895Z,9.70
2019-03-27T06:35:29.483Z,11.53
2019-03-27T06:37:58.020Z,11.40
2019-03-27T06:40:26.459Z,11.80
2019-03-27T06:42:54.956Z,9.78
2019-03-27T06:45:23.408Z,10.08
2019-03-27T06:47:51.878Z,10.25
2019-03-27T06:50:20.391Z,9.80
2019-03-27T06:52:48.866Z,11.20
2019-03-27T06:55:17.396Z,9.95
2019-03-27T06:57:45.931Z,10.95
2019-03-27T07:00:15.037Z,13.22
2019-03-27T07:02:43.592Z,14.70
2019-03-27T07:05:12.173Z,17.42
2019-03-27T07:07:40.746Z,16.77
2019-03-27T07:10:09.372Z,19.92
2019-03-27T07:12:37.908Z,18.70
2019-03-27T07:15:07.068Z,21.90
2019-03-27T07:17:35.566Z,20.52
2019-03-27T07:20:06.087Z,21.65
2019-03-27T07:22:34.548Z,21.25
2019-03-27T07:25:03.906Z,21.50
2019-03-27T07:27:32.596Z,19.98
2019-03-27T07:30:01.195Z,20.40
2019-03-27T07:32:29.638Z,18.95
2019-03-27T07:34:58.236Z,24.02
2019-03-27T07:37:26.813Z,23.92
2019-03-27T07:39:55.299Z,23.70
2019-03-27T07:42:23.778Z,25.45
2019-03-27T07:44:52.306Z,23.15
2019-03-27T07:47:21.334Z,24.57
2019-03-27T07:49:49.859Z,22.85
2019-03-27T07:52:18.307Z,24.98
2019-03-27T07:54:46.766Z,24.52
2019-03-27T07:57:15.209Z,24.32
2019-03-27T07:59:43.700Z,23.27
2019-03-27T08:02:12.520Z,21.68
2019-03-27T08:04:41.181Z,22.98
2019-03-27T08:07:09.771Z,24.02
2019-03-27T08:09:38.270Z,22.93
2019-03-27T08:12:06.887Z,23.12
2019-03-27T08:14:35.418Z,22.55
2019-03-27T08:17:03.956Z,22.40
2019-03-27T08:19:32.590Z,21.05
2019-03-27T08:22:01.248Z,20.68
2019-03-27T08:24:29.697Z,21.87
2019-03-27T08:26:58.309Z,22.05
2019-03-27T08:29:26.935Z,20.32
2019-03-27T08:31:55.561Z,19.48
2019-03-27T08:34:24.808Z,19.90
2019-03-27T08:36:53.343Z,19.23
2019-03-27T08:39:21.858Z,18.17
2019-03-27T08:41:50.398Z,17.87
2019-03-27T08:44:18.932Z,19.30
2019-03-27T08:46:47.674Z,16.67
2019-03-27T08:49:22.141Z,17.30
2019-03-27T08:51:46.720Z,15.68
2019-03-27T08:54:15.238Z,15.23
2019-03-27T08:56:43.721Z,14.95
2019-03-27T08:59:12.190Z,13.35
2019-03-27T09:01:40.667Z,14.43
2019-03-27T09:04:09.205Z,15.32
2019-03-27T09:06:37.686Z,14.30
2019-03-27T09:09:07.849Z,13.62
2019-03-27T09:11:36.804Z,10.60
2019-03-27T09:14:05.476Z,15.95
2019-03-27T09:16:33.929Z,18.73
2019-03-27T09:19:02.565Z,16.45
2019-03-27T09:21:31.006Z,15.55
2019-03-27T09:23:59.524Z,16.40
2019-03-27T09:26:27.975Z,15.53
2019-03-27T09:28:56.543Z,15.28
2019-03-27T09:31:25.003Z,15.30
2019-03-27T09:33:53.481Z,15.95
2019-03-27T09:36:21.929Z,15.35
2019-03-27T09:38:50.593Z,14.58
2019-03-27T09:41:21.508Z,14.95
2019-03-27T09:43:49.319Z,15.13
2019-03-27T09:46:17.775Z,15.72
2019-03-27T09:48:46.236Z,14.83
2019-03-27T09:51:14.778Z,14.23
2019-03-27T09:53:43.339Z,13.65
2019-03-27T09:56:19.081Z,14.30
2019-03-27T09:58:42.206Z,12.15
2019-03-27T10:01:10.725Z,14.53
2019-03-27T10:03:39.315Z,15.38
2019-03-27T10:06:07.786Z,14.43
2019-03-27T10:08:36.418Z,15.05
2019-03-27T10:11:05.307Z,12.78
2019-03-27T10:13:33.855Z,12.88
2019-03-27T10:16:02.386Z,12.55
2019-03-27T10:18:30.921Z,12.85
2019-03-27T10:20:59.462Z,11.75
2019-03-27T10:23:27.916Z,10.78
2019-03-27T10:25:56.926Z,10.08
2019-03-27T10:28:25.361Z,10.38
2019-03-27T10:30:53.926Z,10.40
2019-03-27T10:33:22.440Z,9.45
2019-03-27T10:35:51.014Z,10.23
2019-03-27T10:38:19.543Z,8.65
2019-03-27T10:40:48.160Z,8.83
2019-03-27T10:43:16.752Z,9.13
2019-03-27T10:45:45.308Z,9.40
2019-03-27T10:48:13.753Z,9.30
2019-03-27T10:50:42.359Z,10.70
2019-03-27T10:53:11.759Z,11.88
2019-03-27T10:55:40.243Z,11.33
2019-03-27T10:58:08.851Z,11.38
2019-03-27T11:00:37.386Z,10.85
2019-03-27T11:03:05.847Z,11.60
2019-03-27T11:05:34.318Z,10.80
2019-03-27T11:08:02.758Z,10.32
2019-03-27T11:10:31.380Z,11.00
2019-03-27T11:12:59.827Z,11.93
2019-03-27T11:15:28.405Z,10.60
2019-03-27T11:17:58.085Z,9.70
2019-03-27T11:20:31.338Z,9.93
2019-03-27T11:22:56.754Z,10.25
2019-03-27T11:25:25.333Z,9.13
2019-03-27T11:27:53.880Z,9.58
2019-03-27T11:30:25.419Z,9.70
2019-03-27T11:32:53.898Z,8.38
2019-03-27T11:35:22.418Z,9.15
2019-03-27T11:37:50.917Z,8.25
2019-03-27T11:40:19.367Z,7.75
2019-03-27T11:42:47.838Z,6.75
2019-03-27T11:45:16.421Z,6.37
2019-03-27T11:47:44.902Z,7.40
2019-03-27T11:50:14.677Z,7.17
2019-03-27T11:52:43.217Z,6.62
2019-03-27T11:55:12.105Z,6.08
2019-03-27T11:57:40.755Z,6.45
2019-03-27T12:00:10.693Z,6.40
2019-03-27T12:02:39.239Z,6.70
2019-03-27T12:05:08.607Z,6.60
2019-03-27T12:07:37.114Z,6.30
2019-03-27T12:10:08.073Z,6.62
2019-03-27T12:12:36.535Z,6.05
2019-03-27T12:15:06.423Z,5.40
2019-03-27T12:17:35.430Z,4.92
2019-03-27T12:20:05.209Z,4.72
2019-03-27T12:22:33.723Z,4.60
2019-03-27T12:25:02.162Z,4.30
2019-03-27T12:27:30.669Z,4.60
2019-03-27T12:29:59.419Z,5.67
2019-03-27T12:32:27.934Z,5.83
2019-03-27T12:34:56.426Z,5.00
2019-03-27T12:37:24.997Z,6.08
2019-03-27T12:39:53.644Z,5.95
2019-03-27T12:42:22.129Z,5.20
2019-03-27T12:44:50.603Z,5.83
2019-03-27T12:47:19.047Z,6.15
2019-03-27T12:49:47.526Z,5.25
2019-03-27T12:52:15.986Z,6.12
2019-03-27T12:54:44.525Z,5.90
2019-03-27T12:57:12.992Z,5.58
2019-03-27T12:59:41.542Z,4.87
2019-03-27T13:02:10.087Z,5.20
2019-03-27T13:04:38.564Z,4.70
2019-03-27T13:07:07.073Z,4.42
2019-03-27T13:09:35.610Z,4.35
2019-03-27T13:12:04.303Z,5.15
2019-03-27T13:14:33.032Z,5.10
2019-03-27T13:17:01.472Z,4.62
2019-03-27T13:19:29.973Z,4.28
2019-03-27T13:21:58.526Z,5.08
2019-03-27T13:24:27.032Z,4.70
2019-03-27T13:26:55.521Z,5.55
2019-03-27T13:29:23.969Z,5.25
2019-03-27T13:31:52.743Z,5.12
2019-03-27T13:34:21.182Z,4.87
2019-03-27T13:36:49.827Z,5.62
2019-03-27T13:39:18.339Z,5.10
2019-03-27T13:41:46.874Z,4.85
2019-03-27T13:44:15.770Z,4.78
2019-03-27T13:46:44.360Z,5.10
2019-03-27T13:49:12.931Z,5.20
2019-03-27T13:51:41.666Z,4.78
2019-03-27T13:54:10.154Z,4.75
2019-03-27T13:56:38.635Z,4.70
2019-03-27T13:59:07.212Z,4.10
2019-03-27T14:01:35.682Z,4.78
2019-03-27T14:04:04.217Z,4.40
2019-03-27T14:06:32.686Z,5.08
2019-03-27T14:09:01.215Z,4.47
2019-03-27T14:11:29.687Z,4.42
2019-03-27T14:14:10.586Z,4.53
2019-03-27T14:16:28.432Z,4.03
2019-03-27T14:18:56.962Z,3.80
2019-03-27T14:21:25.416Z,4.00
2019-03-27T14:23:53.881Z,3.40
2019-03-27T14:26:22.442Z,4.45
2019-03-27T14:28:51.183Z,3.67
2019-03-27T14:31:19.629Z,4.62
2019-03-27T14:33:48.213Z,4.62
2019-03-27T14:36:16.738Z,4.40
2019-03-27T14:38:45.201Z,4.00
2019-03-27T14:41:14.114Z,3.70
2019-03-27T14:43:42.702Z,3.80
2019-03-27T14:46:11.224Z,4.45
2019-03-27T14:48:39.901Z,4.70
2019-03-27T14:51:08.350Z,5.67
2019-03-27T14:53:37.195Z,5.17
2019-03-27T14:56:05.775Z,3.90
2019-03-27T14:58:34.320Z,3.62
2019-03-27T15:01:02.788Z,4.33
2019-03-27T15:03:31.403Z,3.75
2019-03-27T15:05:59.906Z,3.47
2019-03-27T15:08:28.443Z,3.50
2019-03-27T15:10:56.962Z,3.20
2019-03-27T15:13:25.620Z,3.30
2019-03-27T15:15:54.170Z,2.90
2019-03-27T15:18:22.756Z,3.40
2019-03-27T15:20:51.278Z,3.00
2019-03-27T15:23:19.973Z,2.67
2019-03-27T15:25:48.580Z,2.80
2019-03-27T15:28:17.103Z,2.75
2019-03-27T15:30:45.783Z,2.83
2019-03-27T15:33:14.310Z,3.10
2019-03-27T15:35:44.648Z,3.00
2019-03-27T15:38:13.007Z,3.05
2019-03-27T15:40:45.630Z,4.15
2019-03-27T15:43:14.143Z,3.62
2019-03-27T15:45:42.717Z,4.92
2019-03-27T15:48:11.326Z,3.98
2019-03-27T15:50:53.650Z,4.28
2019-03-27T15:53:10.092Z,3.83
2019-03-27T15:55:38.658Z,3.83
2019-03-27T15:58:07.180Z,3.87
2019-03-27T16:00:35.900Z,4.22
2019-03-27T16:03:04.518Z,4.58
2019-03-27T16:05:33.045Z,4.15
2019-03-27T16:08:01.678Z,3.70
2019-03-27T16:10:30.121Z,3.83
2019-03-27T16:12:59.949Z,3.90
2019-03-27T16:15:28.467Z,4.08
2019-03-27T16:17:56.951Z,4.15
2019-03-27T16:20:25.459Z,3.98
2019-03-27T16:22:54.010Z,4.45
2019-03-27T16:25:22.653Z,4.85
2019-03-27T16:27:51.175Z,4.40
2019-03-27T16:30:19.772Z,5.35
2019-03-27T16:32:48.294Z,5.58
2019-03-27T16:35:16.975Z,5.72
2019-03-27T16:37:45.522Z,5.70
2019-03-27T16:40:14.316Z,6.35
2019-03-27T16:42:42.884Z,5.47
2019-03-27T16:45:12.066Z,5.70
2019-03-27T16:47:40.548Z,5.47
2019-03-27T16:50:09.734Z,5.70
2019-03-27T16:52:38.344Z,5.50
2019-03-27T16:55:07.900Z,6.08
2019-03-27T16:57:36.395Z,5.85
2019-03-27T17:00:07.076Z,6.30
2019-03-27T17:02:35.691Z,6.28
2019-03-27T17:05:06.607Z,6.78
2019-03-27T17:07:35.174Z,6.60
2019-03-27T17:10:04.800Z,7.47
2019-03-27T17:12:33.250Z,7.10
2019-03-27T17:15:01.791Z,6.50
2019-03-27T17:17:30.254Z,6.70
2019-03-27T17:19:58.757Z,6.37
2019-03-27T17:22:27.305Z,5.25
2019-03-27T17:24:56.224Z,4.87
2019-03-27T17:27:24.832Z,5.78
2019-03-27T17:29:53.483Z,4.92
2019-03-27T17:32:22.195Z,4.78
2019-03-27T17:34:52.027Z,5.58
2019-03-27T17:37:20.800Z,7.75
2019-03-27T17:39:49.857Z,5.33
2019-03-27T17:42:18.445Z,5.85
2019-03-27T17:44:46.915Z,5.22
2019-03-27T17:47:15.500Z,4.67
2019-03-27T17:49:44.130Z,3.72
2019-03-27T17:52:12.737Z,4.72
2019-03-27T17:54:41.393Z,4.50
2019-03-27T17:57:09.822Z,4.72
2019-03-27T17:59:38.345Z,4.10
2019-03-27T18:02:07.081Z,4.12
2019-03-27T18:04:35.629Z,4.22
2019-03-27T18:07:04.375Z,4.00
2019-03-27T18:09:32.979Z,4.80
2019-03-27T18:12:01.551Z,4.78
2019-03-27T18:14:30.055Z,5.00
2019-03-27T18:16:58.614Z,4.37
2019-03-27T18:19:27.090Z,4.33
2019-03-27T18:22:07.029Z,5.12
2019-03-27T18:24:25.995Z,4.83
2019-03-27T18:26:54.613Z,5.25
2019-03-27T18:29:23.067Z,4.65
2019-03-27T18:31:51.752Z,5.08
2019-03-27T18:34:20.325Z,4.28
2019-03-27T18:36:48.824Z,4.55
2019-03-27T18:39:17.328Z,4.87
2019-03-27T18:41:45.970Z,4.53
2019-03-27T18:44:14.420Z,4.70
2019-03-27T18:46:42.987Z,4.92
2019-03-27T18:49:11.563Z,4.60
2019-03-27T18:51:40.010Z,5.08
2019-03-27T18:54:08.612Z,4.58
2019-03-27T18:56:37.222Z,5.45
2019-03-27T18:59:05.775Z,4.87
2019-03-27T19:01:34.315Z,5.92
2019-03-27T19:04:02.883Z,5.33
2019-03-27T19:06:31.390Z,5.60
2019-03-27T19:08:59.871Z,5.17
2019-03-27T19:11:28.566Z,5.10
2019-03-27T19:13:57.193Z,5.28
2019-03-27T19:16:26.255Z,5.00
2019-03-27T19:18:54.748Z,5.28
2019-03-27T19:21:23.324Z,4.33
2019-03-27T19:23:52.002Z,5.20
2019-03-27T19:26:20.507Z,5.60
2019-03-27T19:28:49.051Z,5.30
2019-03-27T19:31:17.815Z,5.75
2019-03-27T19:33:46.428Z,5.45
2019-03-27T19:36:14.930Z,5.35
2019-03-27T19:38:43.493Z,5.50
2019-03-27T19:41:12.086Z,5.65
2019-03-27T19:43:40.661Z,4.97
2019-03-27T19:46:09.199Z,5.30
2019-03-27T19:48:37.713Z,5.28
2019-03-27T19:51:06.374Z,5.58
2019-03-27T19:53:35.058Z,6.37
2019-03-27T19:56:03.631Z,5.53
2019-03-27T19:58:32.202Z,5.53
2019-03-27T20:01:00.747Z,6.92
2019-03-27T20:03:29.313Z,7.80
2019-03-27T20:05:57.794Z,7.78
2019-03-27T20:08:26.431Z,14.43
2019-03-27T20:10:55.018Z,14.90
2019-03-27T20:13:23.574Z,10.93
2019-03-27T20:15:52.227Z,8.73
2019-03-27T20:18:20.831Z,6.78
2019-03-27T20:20:49.307Z,6.40
2019-03-27T20:23:17.823Z,6.58
2019-03-27T20:25:46.369Z,6.85
2019-03-27T20:28:14.959Z,6.47
2019-03-27T20:30:43.511Z,6.30
2019-03-27T20:33:11.972Z,7.17
2019-03-27T20:35:40.817Z,7.10
2019-03-27T20:38:09.392Z,7.65
2019-03-27T20:40:38.151Z,7.75
2019-03-27T20:43:06.698Z,7.42
2019-03-27T20:45:35.176Z,9.05
2019-03-27T20:48:03.753Z,9.20
2019-03-27T20:50:32.215Z,8.40
2019-03-27T20:53:00.686Z,8.10
2019-03-27T20:55:30.609Z,8.60
2019-03-27T20:57:59.647Z,5.83
2019-03-27T21:00:28.245Z,7.40
2019-03-27T21:02:56.841Z,7.03
2019-03-27T21:05:25.310Z,8.50
2019-03-27T21:07:53.805Z,9.43
2019-03-27T21:10:22.305Z,9.85
2019-03-27T21:12:50.808Z,9.40
2019-03-27T21:15:19.272Z,8.25
2019-03-27T21:17:47.838Z,10.38
2019-03-27T21:20:16.443Z,8.45
2019-03-27T21:22:45.037Z,14.35
2019-03-27T21:25:13.968Z,11.25
2019-03-27T21:27:42.584Z,8.55
2019-03-27T21:30:12.551Z,8.93
2019-03-27T21:32:41.106Z,9.85
2019-03-27T21:35:09.691Z,7.97
2019-03-27T21:37:38.246Z,8.53
2019-03-27T21:40:08.136Z,9.40
2019-03-27T21:42:36.635Z,7.78
2019-03-27T21:45:07.215Z,8.10
2019-03-27T21:47:35.754Z,9.90
2019-03-27T21:50:06.361Z,10.08
2019-03-27T21:52:34.908Z,10.03
2019-03-27T21:55:04.283Z,11.73
2019-03-27T21:57:32.789Z,10.75
2019-03-27T22:00:01.333Z,10.70
2019-03-27T22:02:29.831Z,11.18
2019-03-27T22:04:58.359Z,10.80
2019-03-27T22:07:26.831Z,10.00
2019-03-27T22:09:55.308Z,10.03
2019-03-27T22:12:23.767Z,10.23
2019-03-27T22:14:52.348Z,11.05
2019-03-27T22:17:20.868Z,9.73
2019-03-27T22:19:49.364Z,8.55
2019-03-27T22:22:17.813Z,9.60
2019-03-27T22:24:46.356Z,11.00
2019-03-27T22:27:14.818Z,10.32
2019-03-27T22:29:43.384Z,8.93
2019-03-27T22:32:12.082Z,10.10
2019-03-27T22:34:40.622Z,9.40
2019-03-27T22:37:09.072Z,9.95
2019-03-27T22:39:37.610Z,9.05
2019-03-27T22:42:06.150Z,9.50
2019-03-27T22:44:34.626Z,9.53
2019-03-27T22:47:03.092Z,9.10
2019-03-27T22:49:31.734Z,10.38
2019-03-27T22:52:00.302Z,9.38
2019-03-27T22:54:28.833Z,8.68
2019-03-27T22:56:57.396Z,10.35
2019-03-27T22:59:25.808Z,8.70
2019-03-27T23:01:54.592Z,10.60
2019-03-27T23:04:23.112Z,9.40
2019-03-27T23:06:51.602Z,10.48
2019-03-27T23:09:20.311Z,10.28
2019-03-27T23:11:48.937Z,10.03
2019-03-27T23:14:17.378Z,9.53
2019-03-27T23:16:45.869Z,9.30
2019-03-27T23:19:14.327Z,9.78
2019-03-27T23:21:42.917Z,11.08
2019-03-27T23:24:11.466Z,9.13
2019-03-27T23:26:39.952Z,10.03
2019-03-27T23:29:08.477Z,10.75
2019-03-27T23:31:37.006Z,9.90
2019-03-27T23:34:05.549Z,10.28
2019-03-27T23:36:34.048Z,10.35
2019-03-27T23:39:02.785Z,10.00
2019-03-27T23:41:31.275Z,10.43
2019-03-27T23:43:59.755Z,10.43
2019-03-27T23:46:28.198Z,10.45
2019-03-27T23:48:56.671Z,10.50
2019-03-27T23:51:25.159Z,11.25
2019-03-27T23:53:54.005Z,10.95
2019-03-27T23:56:23.103Z,10.50
2019-03-27T23:58:51.688Z,10.43
